sensor_id;sensor_type;location;lat;lon;timestamp;P1;durP1;ratioP1;P2;durP2;ratioP2
20908;SDS011;10614;53.198;6.570;2024-01-30T00:00:05;32.55;;;20.85;;
20908;SDS011;10614;53.198;6.570;2024-01-30T00:02:08;29.55;;;21.00;;
20908;SDS011;10614;53.198;6.570;2024-01-30T00:04:09;31.23;;;21.20;;
20908;SDS011;10614;53.198;6.570;2024-01-30T00:06:11;32.80;;;22.67;;
20908;SDS011;10614;53.198;6.570;2024-01-30T00:08:13;32.13;;;22.52;;
20908;SDS011;10614;53.198;6.570;2024-01-30T00:10:17;30.55;;;21.50;;
20908;SDS011;10614;53.198;6.570;2024-01-30T00:12:18;30.65;;;20.63;;
20908;SDS011;10614;53.198;6.570;2024-01-30T00:14:19;33.10;;;21.02;;
20908;SDS011;10614;53.198;6.570;2024-01-30T00:16:21;33.72;;;21.73;;
20908;SDS011;10614;53.198;6.570;2024-01-30T00:18:24;33.83;;;22.45;;
20908;SDS011;10614;53.198;6.570;2024-01-30T00:20:26;34.90;;;23.70;;
20908;SDS011;10614;53.198;6.570;2024-01-30T00:22:28;35.40;;;23.05;;
20908;SDS011;10614;53.198;6.570;2024-01-30T00:24:30;34.13;;;23.02;;
20908;SDS011;10614;53.198;6.570;2024-01-30T00:26:33;34.67;;;23.13;;
20908;SDS011;10614;53.198;6.570;2024-01-30T00:28:35;37.60;;;23.67;;
20908;SDS011;10614;53.198;6.570;2024-01-30T00:30:37;36.00;;;24.00;;
20908;SDS011;10614;53.198;6.570;2024-01-30T00:32:39;33.75;;;23.98;;
20908;SDS011;10614;53.198;6.570;2024-01-30T00:34:41;34.97;;;24.38;;
20908;SDS011;10614;53.198;6.570;2024-01-30T00:36:43;33.92;;;23.10;;
20908;SDS011;10614;53.198;6.570;2024-01-30T00:38:44;35.55;;;23.08;;
20908;SDS011;10614;53.198;6.570;2024-01-30T00:40:47;35.97;;;24.10;;
20908;SDS011;10614;53.198;6.570;2024-01-30T00:42:51;34.50;;;23.77;;
20908;SDS011;10614;53.198;6.570;2024-01-30T00:44:52;35.50;;;23.35;;
20908;SDS011;10614;53.198;6.570;2024-01-30T00:46:54;32.30;;;23.13;;
20908;SDS011;10614;53.198;6.570;2024-01-30T00:48:56;36.83;;;23.95;;
20908;SDS011;10614;53.198;6.570;2024-01-30T00:50:58;36.00;;;24.55;;
20908;SDS011;10614;53.198;6.570;2024-01-30T00:53:00;34.60;;;24.55;;
20908;SDS011;10614;53.198;6.570;2024-01-30T00:55:02;41.30;;;25.70;;
20908;SDS011;10614;53.198;6.570;2024-01-30T00:57:05;37.80;;;23.55;;
20908;SDS011;10614;53.198;6.570;2024-01-30T00:59:08;36.15;;;24.45;;
20908;SDS011;10614;53.198;6.570;2024-01-30T01:01:10;34.22;;;23.75;;
20908;SDS011;10614;53.198;6.570;2024-01-30T01:03:13;34.60;;;23.63;;
20908;SDS011;10614;53.198;6.570;2024-01-30T01:05:15;37.28;;;24.60;;
20908;SDS011;10614;53.198;6.570;2024-01-30T01:07:17;37.00;;;24.20;;
20908;SDS011;10614;53.198;6.570;2024-01-30T01:09:19;37.65;;;25.13;;
20908;SDS011;10614;53.198;6.570;2024-01-30T01:11:22;33.70;;;24.00;;
20908;SDS011;10614;53.198;6.570;2024-01-30T01:13:25;39.80;;;25.95;;
20908;SDS011;10614;53.198;6.570;2024-01-30T01:15:28;36.13;;;24.50;;
20908;SDS011;10614;53.198;6.570;2024-01-30T01:17:30;36.28;;;25.20;;
20908;SDS011;10614;53.198;6.570;2024-01-30T01:19:31;38.45;;;25.63;;
20908;SDS011;10614;53.198;6.570;2024-01-30T01:21:33;38.67;;;25.73;;
20908;SDS011;10614;53.198;6.570;2024-01-30T01:23:35;37.33;;;25.05;;
20908;SDS011;10614;53.198;6.570;2024-01-30T01:25:36;38.38;;;26.00;;
20908;SDS011;10614;53.198;6.570;2024-01-30T01:27:38;38.15;;;26.27;;
20908;SDS011;10614;53.198;6.570;2024-01-30T01:29:41;38.05;;;25.92;;
20908;SDS011;10614;53.198;6.570;2024-01-30T01:31:44;42.00;;;26.45;;
20908;SDS011;10614;53.198;6.570;2024-01-30T01:33:46;44.25;;;27.40;;
20908;SDS011;10614;53.198;6.570;2024-01-30T01:35:48;37.78;;;26.05;;
20908;SDS011;10614;53.198;6.570;2024-01-30T01:37:50;39.03;;;26.17;;
20908;SDS011;10614;53.198;6.570;2024-01-30T01:39:55;40.10;;;26.42;;
20908;SDS011;10614;53.198;6.570;2024-01-30T01:41:55;43.28;;;27.55;;
20908;SDS011;10614;53.198;6.570;2024-01-30T01:43:57;36.80;;;25.75;;
20908;SDS011;10614;53.198;6.570;2024-01-30T01:45:59;34.42;;;23.98;;
20908;SDS011;10614;53.198;6.570;2024-01-30T01:48:03;36.65;;;25.02;;
20908;SDS011;10614;53.198;6.570;2024-01-30T01:50:05;39.00;;;25.40;;
20908;SDS011;10614;53.198;6.570;2024-01-30T01:52:07;38.03;;;26.48;;
20908;SDS011;10614;53.198;6.570;2024-01-30T01:54:10;38.00;;;25.92;;
20908;SDS011;10614;53.198;6.570;2024-01-30T01:56:12;41.67;;;27.77;;
20908;SDS011;10614;53.198;6.570;2024-01-30T01:58:14;39.92;;;25.20;;
20908;SDS011;10614;53.198;6.570;2024-01-30T02:02:26;39.85;;;26.85;;
20908;SDS011;10614;53.198;6.570;2024-01-30T02:04:37;37.75;;;25.63;;
20908;SDS011;10614;53.198;6.570;2024-01-30T02:06:42;38.88;;;24.48;;
20908;SDS011;10614;53.198;6.570;2024-01-30T02:11:42;40.65;;;25.02;;
20908;SDS011;10614;53.198;6.570;2024-01-30T02:13:45;40.72;;;27.75;;
20908;SDS011;10614;53.198;6.570;2024-01-30T02:15:48;39.58;;;26.40;;
20908;SDS011;10614;53.198;6.570;2024-01-30T02:17:51;39.53;;;26.63;;
20908;SDS011;10614;53.198;6.570;2024-01-30T02:19:55;40.60;;;25.90;;
20908;SDS011;10614;53.198;6.570;2024-01-30T02:21:57;40.45;;;26.02;;
20908;SDS011;10614;53.198;6.570;2024-01-30T02:23:59;38.97;;;26.00;;
20908;SDS011;10614;53.198;6.570;2024-01-30T02:26:04;36.95;;;25.30;;
20908;SDS011;10614;53.198;6.570;2024-01-30T02:28:06;37.53;;;26.92;;
20908;SDS011;10614;53.198;6.570;2024-01-30T02:30:08;41.13;;;25.55;;
20908;SDS011;10614;53.198;6.570;2024-01-30T02:32:11;42.88;;;26.77;;
20908;SDS011;10614;53.198;6.570;2024-01-30T02:34:13;42.70;;;26.67;;
20908;SDS011;10614;53.198;6.570;2024-01-30T02:36:15;39.40;;;25.77;;
20908;SDS011;10614;53.198;6.570;2024-01-30T02:38:19;41.50;;;25.67;;
20908;SDS011;10614;53.198;6.570;2024-01-30T02:40:23;39.15;;;25.88;;
20908;SDS011;10614;53.198;6.570;2024-01-30T02:42:26;39.20;;;25.92;;
20908;SDS011;10614;53.198;6.570;2024-01-30T02:44:28;40.60;;;26.88;;
20908;SDS011;10614;53.198;6.570;2024-01-30T02:46:33;41.40;;;26.58;;
20908;SDS011;10614;53.198;6.570;2024-01-30T02:48:36;41.88;;;27.15;;
20908;SDS011;10614;53.198;6.570;2024-01-30T02:50:39;41.50;;;27.30;;
20908;SDS011;10614;53.198;6.570;2024-01-30T02:52:41;46.15;;;27.13;;
20908;SDS011;10614;53.198;6.570;2024-01-30T02:54:46;40.17;;;26.20;;
20908;SDS011;10614;53.198;6.570;2024-01-30T02:56:48;35.95;;;25.67;;
20908;SDS011;10614;53.198;6.570;2024-01-30T02:58:51;38.38;;;25.83;;
20908;SDS011;10614;53.198;6.570;2024-01-30T03:00:54;36.17;;;25.05;;
20908;SDS011;10614;53.198;6.570;2024-01-30T03:02:56;38.38;;;24.58;;
20908;SDS011;10614;53.198;6.570;2024-01-30T03:05:01;37.30;;;25.38;;
20908;SDS011;10614;53.198;6.570;2024-01-30T03:07:03;37.88;;;26.30;;
20908;SDS011;10614;53.198;6.570;2024-01-30T03:09:07;37.03;;;25.52;;
20908;SDS011;10614;53.198;6.570;2024-01-30T03:11:11;38.08;;;24.67;;
20908;SDS011;10614;53.198;6.570;2024-01-30T03:13:14;37.15;;;25.83;;
20908;SDS011;10614;53.198;6.570;2024-01-30T03:15:16;39.25;;;26.73;;
20908;SDS011;10614;53.198;6.570;2024-01-30T03:17:17;37.80;;;25.20;;
20908;SDS011;10614;53.198;6.570;2024-01-30T03:19:19;37.78;;;25.73;;
20908;SDS011;10614;53.198;6.570;2024-01-30T03:21:22;39.63;;;25.95;;
20908;SDS011;10614;53.198;6.570;2024-01-30T03:23:33;39.53;;;26.10;;
20908;SDS011;10614;53.198;6.570;2024-01-30T03:25:35;39.50;;;26.60;;
20908;SDS011;10614;53.198;6.570;2024-01-30T03:27:44;40.60;;;26.70;;
20908;SDS011;10614;53.198;6.570;2024-01-30T03:29:47;38.42;;;25.83;;
20908;SDS011;10614;53.198;6.570;2024-01-30T03:31:50;39.10;;;25.42;;
20908;SDS011;10614;53.198;6.570;2024-01-30T03:33:52;40.33;;;26.85;;
20908;SDS011;10614;53.198;6.570;2024-01-30T03:36:02;40.22;;;26.30;;
20908;SDS011;10614;53.198;6.570;2024-01-30T03:38:05;40.72;;;26.38;;
20908;SDS011;10614;53.198;6.570;2024-01-30T03:40:07;36.53;;;25.13;;
20908;SDS011;10614;53.198;6.570;2024-01-30T03:42:10;36.72;;;24.98;;
20908;SDS011;10614;53.198;6.570;2024-01-30T03:44:14;41.40;;;26.13;;
20908;SDS011;10614;53.198;6.570;2024-01-30T03:46:18;40.10;;;26.70;;
20908;SDS011;10614;53.198;6.570;2024-01-30T03:48:21;40.42;;;26.77;;
20908;SDS011;10614;53.198;6.570;2024-01-30T03:50:22;36.17;;;25.05;;
20908;SDS011;10614;53.198;6.570;2024-01-30T03:52:24;36.50;;;24.77;;
20908;SDS011;10614;53.198;6.570;2024-01-30T03:54:27;38.28;;;25.63;;
20908;SDS011;10614;53.198;6.570;2024-01-30T03:56:29;39.95;;;25.73;;
20908;SDS011;10614;53.198;6.570;2024-01-30T03:58:30;40.25;;;26.00;;
20908;SDS011;10614;53.198;6.570;2024-01-30T04:00:34;40.92;;;26.38;;
20908;SDS011;10614;53.198;6.570;2024-01-30T04:02:35;43.28;;;26.00;;
20908;SDS011;10614;53.198;6.570;2024-01-30T04:04:37;39.78;;;26.20;;
20908;SDS011;10614;53.198;6.570;2024-01-30T04:06:40;37.13;;;25.15;;
20908;SDS011;10614;53.198;6.570;2024-01-30T04:08:42;38.22;;;25.80;;
20908;SDS011;10614;53.198;6.570;2024-01-30T04:10:44;36.15;;;24.77;;
20908;SDS011;10614;53.198;6.570;2024-01-30T04:12:46;37.13;;;25.27;;
20908;SDS011;10614;53.198;6.570;2024-01-30T04:14:47;36.72;;;25.33;;
20908;SDS011;10614;53.198;6.570;2024-01-30T04:16:53;40.15;;;25.73;;
20908;SDS011;10614;53.198;6.570;2024-01-30T04:18:55;43.97;;;26.50;;
20908;SDS011;10614;53.198;6.570;2024-01-30T04:20:58;42.40;;;26.33;;
20908;SDS011;10614;53.198;6.570;2024-01-30T04:23:00;38.15;;;25.60;;
20908;SDS011;10614;53.198;6.570;2024-01-30T04:25:01;36.50;;;24.67;;
20908;SDS011;10614;53.198;6.570;2024-01-30T04:27:03;40.60;;;26.02;;
20908;SDS011;10614;53.198;6.570;2024-01-30T04:29:06;36.13;;;25.23;;
20908;SDS011;10614;53.198;6.570;2024-01-30T04:31:08;38.22;;;24.92;;
20908;SDS011;10614;53.198;6.570;2024-01-30T04:38:01;37.78;;;24.85;;
20908;SDS011;10614;53.198;6.570;2024-01-30T04:40:04;37.63;;;23.93;;
20908;SDS011;10614;53.198;6.570;2024-01-30T04:42:07;34.08;;;24.27;;
20908;SDS011;10614;53.198;6.570;2024-01-30T04:44:08;35.60;;;24.23;;
20908;SDS011;10614;53.198;6.570;2024-01-30T04:46:11;41.38;;;24.10;;
20908;SDS011;10614;53.198;6.570;2024-01-30T04:48:13;34.45;;;22.08;;
20908;SDS011;10614;53.198;6.570;2024-01-30T04:50:15;33.92;;;22.77;;
20908;SDS011;10614;53.198;6.570;2024-01-30T04:52:17;34.10;;;23.45;;
20908;SDS011;10614;53.198;6.570;2024-01-30T04:54:27;34.83;;;22.70;;
20908;SDS011;10614;53.198;6.570;2024-01-30T04:56:29;35.78;;;22.63;;
20908;SDS011;10614;53.198;6.570;2024-01-30T04:58:31;33.67;;;22.08;;
20908;SDS011;10614;53.198;6.570;2024-01-30T05:00:33;34.30;;;23.05;;
20908;SDS011;10614;53.198;6.570;2024-01-30T05:02:35;35.78;;;22.48;;
20908;SDS011;10614;53.198;6.570;2024-01-30T05:04:38;38.28;;;23.95;;
20908;SDS011;10614;53.198;6.570;2024-01-30T05:06:45;33.05;;;22.35;;
20908;SDS011;10614;53.198;6.570;2024-01-30T05:08:47;32.80;;;22.48;;
20908;SDS011;10614;53.198;6.570;2024-01-30T05:10:51;33.83;;;22.00;;
20908;SDS011;10614;53.198;6.570;2024-01-30T05:12:54;35.28;;;23.60;;
20908;SDS011;10614;53.198;6.570;2024-01-30T05:21:50;30.70;;;20.10;;
20908;SDS011;10614;53.198;6.570;2024-01-30T05:23:53;30.73;;;20.30;;
20908;SDS011;10614;53.198;6.570;2024-01-30T05:25:57;32.00;;;21.38;;
20908;SDS011;10614;53.198;6.570;2024-01-30T05:28:00;33.30;;;21.27;;
20908;SDS011;10614;53.198;6.570;2024-01-30T05:30:09;29.98;;;20.33;;
20908;SDS011;10614;53.198;6.570;2024-01-30T05:32:15;33.08;;;21.88;;
20908;SDS011;10614;53.198;6.570;2024-01-30T05:34:17;31.77;;;21.23;;
20908;SDS011;10614;53.198;6.570;2024-01-30T05:36:18;37.45;;;21.38;;
20908;SDS011;10614;53.198;6.570;2024-01-30T05:38:21;32.03;;;21.08;;
20908;SDS011;10614;53.198;6.570;2024-01-30T05:40:23;30.60;;;20.70;;
20908;SDS011;10614;53.198;6.570;2024-01-30T05:42:28;32.42;;;20.63;;
20908;SDS011;10614;53.198;6.570;2024-01-30T05:44:30;29.10;;;19.98;;
20908;SDS011;10614;53.198;6.570;2024-01-30T05:48:36;32.13;;;20.00;;
20908;SDS011;10614;53.198;6.570;2024-01-30T05:50:39;28.55;;;20.08;;
20908;SDS011;10614;53.198;6.570;2024-01-30T05:52:41;32.13;;;21.80;;
20908;SDS011;10614;53.198;6.570;2024-01-30T05:54:43;27.90;;;19.98;;
20908;SDS011;10614;53.198;6.570;2024-01-30T05:56:46;31.83;;;20.88;;
20908;SDS011;10614;53.198;6.570;2024-01-30T05:58:49;33.15;;;20.60;;
20908;SDS011;10614;53.198;6.570;2024-01-30T06:00:52;30.83;;;19.77;;
20908;SDS011;10614;53.198;6.570;2024-01-30T06:02:53;30.55;;;20.08;;
20908;SDS011;10614;53.198;6.570;2024-01-30T06:04:56;30.50;;;20.38;;
20908;SDS011;10614;53.198;6.570;2024-01-30T06:06:57;34.80;;;23.08;;
20908;SDS011;10614;53.198;6.570;2024-01-30T06:09:02;37.95;;;22.70;;
20908;SDS011;10614;53.198;6.570;2024-01-30T06:11:04;30.88;;;21.02;;
20908;SDS011;10614;53.198;6.570;2024-01-30T06:13:08;30.88;;;20.48;;
20908;SDS011;10614;53.198;6.570;2024-01-30T06:15:13;33.95;;;19.67;;
20908;SDS011;10614;53.198;6.570;2024-01-30T06:17:18;29.83;;;20.00;;
20908;SDS011;10614;53.198;6.570;2024-01-30T06:19:20;29.88;;;19.10;;
20908;SDS011;10614;53.198;6.570;2024-01-30T06:21:23;29.83;;;18.83;;
20908;SDS011;10614;53.198;6.570;2024-01-30T06:23:24;29.15;;;19.00;;
20908;SDS011;10614;53.198;6.570;2024-01-30T06:25:30;30.27;;;19.23;;
20908;SDS011;10614;53.198;6.570;2024-01-30T06:27:39;27.70;;;19.00;;
20908;SDS011;10614;53.198;6.570;2024-01-30T06:29:47;29.30;;;18.75;;
20908;SDS011;10614;53.198;6.570;2024-01-30T06:31:59;28.63;;;17.92;;
20908;SDS011;10614;53.198;6.570;2024-01-30T06:34:04;30.50;;;19.30;;
20908;SDS011;10614;53.198;6.570;2024-01-30T06:36:05;25.67;;;17.55;;
20908;SDS011;10614;53.198;6.570;2024-01-30T06:38:07;28.27;;;18.27;;
20908;SDS011;10614;53.198;6.570;2024-01-30T06:40:09;31.00;;;19.33;;
20908;SDS011;10614;53.198;6.570;2024-01-30T06:42:11;30.25;;;18.88;;
20908;SDS011;10614;53.198;6.570;2024-01-30T06:44:14;26.85;;;18.60;;
20908;SDS011;10614;53.198;6.570;2024-01-30T06:46:15;27.27;;;18.48;;
20908;SDS011;10614;53.198;6.570;2024-01-30T06:48:20;30.23;;;19.58;;
20908;SDS011;10614;53.198;6.570;2024-01-30T06:50:24;28.77;;;19.52;;
20908;SDS011;10614;53.198;6.570;2024-01-30T06:52:29;27.33;;;18.92;;
20908;SDS011;10614;53.198;6.570;2024-01-30T06:57:06;26.70;;;17.70;;
20908;SDS011;10614;53.198;6.570;2024-01-30T06:59:16;29.52;;;19.38;;
20908;SDS011;10614;53.198;6.570;2024-01-30T07:01:18;30.65;;;17.88;;
20908;SDS011;10614;53.198;6.570;2024-01-30T07:03:21;27.52;;;17.98;;
20908;SDS011;10614;53.198;6.570;2024-01-30T07:05:23;25.05;;;17.20;;
20908;SDS011;10614;53.198;6.570;2024-01-30T07:07:28;26.23;;;17.30;;
20908;SDS011;10614;53.198;6.570;2024-01-30T07:09:30;26.67;;;17.73;;
20908;SDS011;10614;53.198;6.570;2024-01-30T07:11:32;26.38;;;16.45;;
20908;SDS011;10614;53.198;6.570;2024-01-30T07:13:35;24.02;;;16.85;;
20908;SDS011;10614;53.198;6.570;2024-01-30T07:15:37;26.77;;;17.70;;
20908;SDS011;10614;53.198;6.570;2024-01-30T07:17:40;26.45;;;17.10;;
20908;SDS011;10614;53.198;6.570;2024-01-30T07:19:44;25.05;;;16.83;;
20908;SDS011;10614;53.198;6.570;2024-01-30T07:21:49;28.67;;;18.08;;
20908;SDS011;10614;53.198;6.570;2024-01-30T07:23:55;24.98;;;16.15;;
20908;SDS011;10614;53.198;6.570;2024-01-30T07:25:57;25.80;;;16.83;;
20908;SDS011;10614;53.198;6.570;2024-01-30T07:27:59;23.45;;;16.42;;
20908;SDS011;10614;53.198;6.570;2024-01-30T07:30:01;25.60;;;17.13;;
20908;SDS011;10614;53.198;6.570;2024-01-30T07:32:04;26.15;;;17.85;;
20908;SDS011;10614;53.198;6.570;2024-01-30T07:34:07;25.70;;;16.60;;
20908;SDS011;10614;53.198;6.570;2024-01-30T07:36:10;25.20;;;16.88;;
20908;SDS011;10614;53.198;6.570;2024-01-30T07:38:13;25.48;;;16.45;;
20908;SDS011;10614;53.198;6.570;2024-01-30T07:40:15;24.90;;;17.00;;
20908;SDS011;10614;53.198;6.570;2024-01-30T07:44:18;25.57;;;16.60;;
20908;SDS011;10614;53.198;6.570;2024-01-30T07:46:21;24.08;;;16.92;;
20908;SDS011;10614;53.198;6.570;2024-01-30T07:48:24;23.92;;;15.85;;
20908;SDS011;10614;53.198;6.570;2024-01-30T07:50:29;26.95;;;16.95;;
20908;SDS011;10614;53.198;6.570;2024-01-30T07:52:36;27.65;;;17.27;;
20908;SDS011;10614;53.198;6.570;2024-01-30T07:54:42;24.65;;;16.17;;
20908;SDS011;10614;53.198;6.570;2024-01-30T07:56:45;25.85;;;17.00;;
20908;SDS011;10614;53.198;6.570;2024-01-30T07:58:47;23.80;;;15.57;;
20908;SDS011;10614;53.198;6.570;2024-01-30T08:00:49;22.77;;;15.50;;
20908;SDS011;10614;53.198;6.570;2024-01-30T08:02:53;25.73;;;16.67;;
20908;SDS011;10614;53.198;6.570;2024-01-30T08:04:55;22.80;;;15.60;;
20908;SDS011;10614;53.198;6.570;2024-01-30T08:06:57;24.05;;;16.70;;
20908;SDS011;10614;53.198;6.570;2024-01-30T08:08:59;25.92;;;16.63;;
20908;SDS011;10614;53.198;6.570;2024-01-30T08:11:01;25.77;;;16.63;;
20908;SDS011;10614;53.198;6.570;2024-01-30T08:13:03;25.20;;;15.98;;
20908;SDS011;10614;53.198;6.570;2024-01-30T08:15:04;24.92;;;16.08;;
20908;SDS011;10614;53.198;6.570;2024-01-30T08:17:07;24.42;;;15.90;;
20908;SDS011;10614;53.198;6.570;2024-01-30T08:19:09;23.90;;;16.02;;
20908;SDS011;10614;53.198;6.570;2024-01-30T08:21:10;22.20;;;15.38;;
20908;SDS011;10614;53.198;6.570;2024-01-30T08:23:12;22.98;;;15.52;;
20908;SDS011;10614;53.198;6.570;2024-01-30T08:25:15;25.08;;;16.70;;
20908;SDS011;10614;53.198;6.570;2024-01-30T08:27:17;24.35;;;15.57;;
20908;SDS011;10614;53.198;6.570;2024-01-30T08:29:19;25.05;;;15.70;;
20908;SDS011;10614;53.198;6.570;2024-01-30T08:31:21;22.30;;;14.85;;
20908;SDS011;10614;53.198;6.570;2024-01-30T08:33:23;23.73;;;15.95;;
20908;SDS011;10614;53.198;6.570;2024-01-30T08:35:25;23.15;;;16.23;;
20908;SDS011;10614;53.198;6.570;2024-01-30T08:37:27;25.40;;;16.20;;
20908;SDS011;10614;53.198;6.570;2024-01-30T08:39:29;22.45;;;15.80;;
20908;SDS011;10614;53.198;6.570;2024-01-30T08:41:32;23.95;;;15.60;;
20908;SDS011;10614;53.198;6.570;2024-01-30T08:43:34;22.88;;;15.93;;
20908;SDS011;10614;53.198;6.570;2024-01-30T08:45:36;23.98;;;15.10;;
20908;SDS011;10614;53.198;6.570;2024-01-30T08:47:38;22.35;;;15.10;;
20908;SDS011;10614;53.198;6.570;2024-01-30T08:49:41;24.08;;;15.20;;
20908;SDS011;10614;53.198;6.570;2024-01-30T08:51:45;21.52;;;14.65;;
20908;SDS011;10614;53.198;6.570;2024-01-30T08:53:47;22.73;;;14.93;;
20908;SDS011;10614;53.198;6.570;2024-01-30T08:55:49;23.52;;;15.32;;
20908;SDS011;10614;53.198;6.570;2024-01-30T08:57:52;21.63;;;15.00;;
20908;SDS011;10614;53.198;6.570;2024-01-30T08:59:54;24.10;;;14.52;;
20908;SDS011;10614;53.198;6.570;2024-01-30T09:01:56;23.38;;;14.18;;
20908;SDS011;10614;53.198;6.570;2024-01-30T09:04:01;22.52;;;14.05;;
20908;SDS011;10614;53.198;6.570;2024-01-30T09:06:03;23.20;;;14.88;;
20908;SDS011;10614;53.198;6.570;2024-01-30T09:08:05;21.25;;;14.38;;
20908;SDS011;10614;53.198;6.570;2024-01-30T09:10:08;20.25;;;13.77;;
20908;SDS011;10614;53.198;6.570;2024-01-30T09:12:10;20.80;;;14.73;;
20908;SDS011;10614;53.198;6.570;2024-01-30T09:14:13;23.30;;;14.73;;
20908;SDS011;10614;53.198;6.570;2024-01-30T09:16:15;21.98;;;14.20;;
20908;SDS011;10614;53.198;6.570;2024-01-30T09:18:17;25.13;;;14.20;;
20908;SDS011;10614;53.198;6.570;2024-01-30T09:20:18;23.63;;;14.63;;
20908;SDS011;10614;53.198;6.570;2024-01-30T09:22:20;21.77;;;13.73;;
20908;SDS011;10614;53.198;6.570;2024-01-30T09:24:22;23.40;;;13.82;;
20908;SDS011;10614;53.198;6.570;2024-01-30T09:26:24;20.42;;;13.82;;
20908;SDS011;10614;53.198;6.570;2024-01-30T09:28:26;21.38;;;14.13;;
20908;SDS011;10614;53.198;6.570;2024-01-30T09:30:29;21.75;;;13.07;;
20908;SDS011;10614;53.198;6.570;2024-01-30T09:32:31;19.90;;;13.23;;
20908;SDS011;10614;53.198;6.570;2024-01-30T09:34:32;20.48;;;14.30;;
20908;SDS011;10614;53.198;6.570;2024-01-30T09:36:34;22.40;;;14.32;;
20908;SDS011;10614;53.198;6.570;2024-01-30T09:38:36;24.38;;;13.38;;
20908;SDS011;10614;53.198;6.570;2024-01-30T09:40:38;21.48;;;14.00;;
20908;SDS011;10614;53.198;6.570;2024-01-30T09:42:41;21.73;;;14.00;;
20908;SDS011;10614;53.198;6.570;2024-01-30T09:44:44;18.88;;;13.07;;
20908;SDS011;10614;53.198;6.570;2024-01-30T09:46:53;20.80;;;13.93;;
20908;SDS011;10614;53.198;6.570;2024-01-30T09:48:55;25.13;;;13.75;;
20908;SDS011;10614;53.198;6.570;2024-01-30T09:50:58;20.10;;;13.38;;
20908;SDS011;10614;53.198;6.570;2024-01-30T09:53:00;21.20;;;13.65;;
20908;SDS011;10614;53.198;6.570;2024-01-30T09:55:05;22.42;;;13.10;;
20908;SDS011;10614;53.198;6.570;2024-01-30T09:57:07;21.15;;;13.82;;
20908;SDS011;10614;53.198;6.570;2024-01-30T09:59:08;20.58;;;13.23;;
20908;SDS011;10614;53.198;6.570;2024-01-30T10:01:11;19.42;;;13.20;;
20908;SDS011;10614;53.198;6.570;2024-01-30T10:03:15;23.73;;;13.43;;
20908;SDS011;10614;53.198;6.570;2024-01-30T10:05:16;17.33;;;12.82;;
20908;SDS011;10614;53.198;6.570;2024-01-30T10:07:20;21.30;;;13.98;;
20908;SDS011;10614;53.198;6.570;2024-01-30T10:09:23;20.92;;;13.25;;
20908;SDS011;10614;53.198;6.570;2024-01-30T10:11:25;21.67;;;13.32;;
20908;SDS011;10614;53.198;6.570;2024-01-30T10:13:27;22.80;;;13.93;;
20908;SDS011;10614;53.198;6.570;2024-01-30T10:15:29;23.27;;;13.63;;
20908;SDS011;10614;53.198;6.570;2024-01-30T10:17:29;25.25;;;13.50;;
20908;SDS011;10614;53.198;6.570;2024-01-30T10:19:33;20.48;;;13.27;;
20908;SDS011;10614;53.198;6.570;2024-01-30T10:21:34;26.35;;;13.40;;
20908;SDS011;10614;53.198;6.570;2024-01-30T10:23:36;19.48;;;13.20;;
20908;SDS011;10614;53.198;6.570;2024-01-30T10:25:38;22.40;;;14.10;;
20908;SDS011;10614;53.198;6.570;2024-01-30T10:27:39;19.02;;;13.05;;
20908;SDS011;10614;53.198;6.570;2024-01-30T10:29:41;22.73;;;13.98;;
20908;SDS011;10614;53.198;6.570;2024-01-30T10:31:43;21.30;;;13.35;;
20908;SDS011;10614;53.198;6.570;2024-01-30T10:33:45;22.98;;;13.13;;
20908;SDS011;10614;53.198;6.570;2024-01-30T10:35:48;21.77;;;13.35;;
20908;SDS011;10614;53.198;6.570;2024-01-30T10:37:52;26.27;;;14.15;;
20908;SDS011;10614;53.198;6.570;2024-01-30T10:39:55;21.83;;;13.18;;
20908;SDS011;10614;53.198;6.570;2024-01-30T10:42:04;26.50;;;13.00;;
20908;SDS011;10614;53.198;6.570;2024-01-30T10:44:08;22.98;;;13.63;;
20908;SDS011;10614;53.198;6.570;2024-01-30T10:46:15;24.77;;;14.05;;
20908;SDS011;10614;53.198;6.570;2024-01-30T10:48:21;22.48;;;13.40;;
20908;SDS011;10614;53.198;6.570;2024-01-30T10:50:31;24.83;;;14.13;;
20908;SDS011;10614;53.198;6.570;2024-01-30T10:54:39;24.50;;;14.20;;
20908;SDS011;10614;53.198;6.570;2024-01-30T10:56:43;23.98;;;14.40;;
20908;SDS011;10614;53.198;6.570;2024-01-30T10:58:45;25.35;;;14.52;;
20908;SDS011;10614;53.198;6.570;2024-01-30T11:00:46;22.75;;;13.40;;
20908;SDS011;10614;53.198;6.570;2024-01-30T11:02:50;23.50;;;14.65;;
20908;SDS011;10614;53.198;6.570;2024-01-30T11:04:55;24.17;;;14.48;;
20908;SDS011;10614;53.198;6.570;2024-01-30T11:06:59;21.35;;;13.85;;
20908;SDS011;10614;53.198;6.570;2024-01-30T11:09:04;25.50;;;15.65;;
20908;SDS011;10614;53.198;6.570;2024-01-30T11:11:09;20.58;;;14.38;;
20908;SDS011;10614;53.198;6.570;2024-01-30T11:13:13;22.75;;;13.98;;
20908;SDS011;10614;53.198;6.570;2024-01-30T11:15:15;23.75;;;14.98;;
20908;SDS011;10614;53.198;6.570;2024-01-30T11:17:18;21.85;;;14.40;;
20908;SDS011;10614;53.198;6.570;2024-01-30T11:19:22;26.50;;;15.07;;
20908;SDS011;10614;53.198;6.570;2024-01-30T11:21:26;23.33;;;14.30;;
20908;SDS011;10614;53.198;6.570;2024-01-30T11:23:27;24.00;;;14.63;;
20908;SDS011;10614;53.198;6.570;2024-01-30T11:25:31;23.40;;;14.63;;
20908;SDS011;10614;53.198;6.570;2024-01-30T11:27:33;24.92;;;14.23;;
20908;SDS011;10614;53.198;6.570;2024-01-30T11:29:34;24.45;;;13.65;;
20908;SDS011;10614;53.198;6.570;2024-01-30T11:31:36;22.27;;;12.73;;
20908;SDS011;10614;53.198;6.570;2024-01-30T11:33:38;26.77;;;12.27;;
20908;SDS011;10614;53.198;6.570;2024-01-30T11:35:40;20.25;;;11.32;;
20908;SDS011;10614;53.198;6.570;2024-01-30T11:37:43;27.65;;;11.32;;
20908;SDS011;10614;53.198;6.570;2024-01-30T11:39:49;23.92;;;10.93;;
20908;SDS011;10614;53.198;6.570;2024-01-30T11:41:54;21.42;;;10.13;;
20908;SDS011;10614;53.198;6.570;2024-01-30T11:43:56;23.33;;;9.77;;
20908;SDS011;10614;53.198;6.570;2024-01-30T11:45:58;19.48;;;9.50;;
20908;SDS011;10614;53.198;6.570;2024-01-30T11:48:00;18.17;;;8.43;;
20908;SDS011;10614;53.198;6.570;2024-01-30T11:50:03;15.73;;;7.57;;
20908;SDS011;10614;53.198;6.570;2024-01-30T11:52:06;16.27;;;6.72;;
20908;SDS011;10614;53.198;6.570;2024-01-30T11:54:09;14.20;;;6.45;;
20908;SDS011;10614;53.198;6.570;2024-01-30T11:56:12;15.05;;;5.75;;
20908;SDS011;10614;53.198;6.570;2024-01-30T11:58:15;13.70;;;4.72;;
20908;SDS011;10614;53.198;6.570;2024-01-30T12:00:18;9.27;;;4.75;;
20908;SDS011;10614;53.198;6.570;2024-01-30T12:02:19;11.52;;;4.45;;
20908;SDS011;10614;53.198;6.570;2024-01-30T12:04:21;9.65;;;3.85;;
20908;SDS011;10614;53.198;6.570;2024-01-30T12:06:23;8.98;;;3.80;;
20908;SDS011;10614;53.198;6.570;2024-01-30T12:08:25;9.50;;;3.47;;
20908;SDS011;10614;53.198;6.570;2024-01-30T12:10:27;7.65;;;3.40;;
20908;SDS011;10614;53.198;6.570;2024-01-30T12:12:28;6.53;;;2.90;;
20908;SDS011;10614;53.198;6.570;2024-01-30T12:14:32;8.10;;;2.95;;
20908;SDS011;10614;53.198;6.570;2024-01-30T12:16:34;6.70;;;2.47;;
20908;SDS011;10614;53.198;6.570;2024-01-30T12:18:36;3.90;;;1.65;;
20908;SDS011;10614;53.198;6.570;2024-01-30T12:20:38;6.97;;;1.75;;
20908;SDS011;10614;53.198;6.570;2024-01-30T12:22:41;5.47;;;1.50;;
20908;SDS011;10614;53.198;6.570;2024-01-30T12:24:43;4.05;;;1.65;;